createdAt,value
2023-01-27T00:00:23.786Z,5.35
2023-01-27T00:03:26.701Z,5.65
2023-01-27T00:06:29.311Z,5.66
2023-01-27T00:09:33.262Z,5.78
2023-01-27T00:12:53.507Z,5.57
2023-01-27T00:15:56.703Z,5.55
2023-01-27T00:18:59.363Z,5.50
2023-01-27T00:22:19.431Z,5.52
2023-01-27T00:25:23.428Z,5.60
2023-01-27T00:28:26.155Z,5.74
2023-01-27T00:31:46.513Z,5.61
2023-01-27T00:34:49.341Z,5.66
2023-01-27T00:37:52.291Z,5.72
2023-01-27T00:41:14.026Z,5.67
2023-01-27T00:44:16.632Z,5.61
2023-01-27T00:47:19.237Z,5.55
2023-01-27T00:50:22.493Z,5.75
2023-01-27T00:53:25.136Z,5.74
2023-01-27T00:56:29.237Z,5.67
2023-01-27T00:59:31.862Z,5.79
2023-01-27T01:02:34.489Z,5.67
2023-01-27T01:05:37.199Z,5.53
2023-01-27T01:08:40.564Z,5.66
2023-01-27T01:11:44.527Z,5.43
2023-01-27T01:14:47.137Z,5.79
2023-01-27T01:17:49.726Z,5.69
2023-01-27T01:20:52.331Z,5.46
2023-01-27T01:23:55.066Z,5.71
2023-01-27T01:26:59.071Z,5.60
2023-01-27T01:30:02.013Z,5.52
2023-01-27T01:33:05.078Z,5.51
2023-01-27T01:36:10.876Z,5.62
2023-01-27T01:39:13.481Z,5.45
2023-01-27T01:42:17.432Z,5.60
2023-01-27T01:45:54.352Z,5.33
2023-01-27T01:49:01.907Z,5.44
2023-01-27T01:52:10.215Z,5.46
2023-01-27T01:55:13.593Z,5.29
2023-01-27T01:58:17.937Z,5.66
2023-01-27T02:01:20.563Z,5.57
2023-01-27T02:04:27.522Z,5.63
2023-01-27T02:07:36.631Z,5.82
2023-01-27T02:10:39.769Z,5.83
2023-01-27T02:13:44.639Z,5.56
2023-01-27T02:16:47.879Z,5.56
2023-01-27T02:19:59.482Z,5.69
2023-01-27T02:23:08.946Z,5.93
2023-01-27T02:26:18.776Z,5.53
2023-01-27T02:29:22.737Z,5.66
2023-01-27T02:32:26.711Z,5.65
2023-01-27T02:35:34.732Z,5.58
2023-01-27T02:38:41.581Z,5.59
2023-01-27T02:41:49.947Z,5.69
2023-01-27T02:44:52.512Z,5.68
2023-01-27T02:47:55.207Z,5.55
2023-01-27T02:50:57.944Z,5.57
2023-01-27T02:54:00.709Z,5.75
2023-01-27T02:57:04.801Z,5.49
2023-01-27T03:00:09.630Z,5.41
2023-01-27T03:03:12.223Z,5.43
2023-01-27T03:06:15.338Z,5.48
2023-01-27T03:09:17.936Z,5.52
2023-01-27T03:12:21.916Z,5.43
2023-01-27T03:15:43.054Z,5.48
2023-01-27T03:18:47.308Z,5.50
2023-01-27T03:21:51.155Z,5.28
2023-01-27T03:24:53.969Z,5.32
2023-01-27T03:27:58.366Z,5.38
2023-01-27T03:31:02.090Z,5.31
2023-01-27T03:34:05.230Z,5.49
2023-01-27T03:37:25.757Z,5.22
2023-01-27T03:40:46.619Z,5.11
2023-01-27T03:44:08.366Z,5.18
2023-01-27T03:47:11.237Z,5.16
2023-01-27T03:50:19.145Z,5.13
2023-01-27T03:53:21.945Z,5.21
2023-01-27T03:56:24.679Z,5.21
2023-01-27T03:59:28.591Z,5.05
2023-01-27T04:02:51.665Z,4.98
2023-01-27T04:06:11.980Z,5.28
2023-01-27T04:09:19.676Z,5.34
2023-01-27T04:12:22.282Z,5.60
2023-01-27T04:15:26.207Z,5.16
2023-01-27T04:18:28.793Z,5.30
2023-01-27T04:21:31.685Z,5.25
2023-01-27T04:24:34.341Z,5.34
2023-01-27T04:27:36.929Z,5.18
2023-01-27T04:30:40.953Z,5.18
2023-01-27T04:33:43.698Z,5.32
2023-01-27T04:36:47.558Z,5.47
2023-01-27T04:39:50.160Z,5.30
2023-01-27T04:42:54.927Z,4.99
2023-01-27T04:45:58.960Z,5.13
2023-01-27T04:49:01.751Z,5.07
2023-01-27T04:52:04.466Z,4.95
2023-01-27T04:55:08.104Z,5.30
2023-01-27T04:58:13.757Z,5.26
2023-01-27T05:01:17.761Z,4.79
2023-01-27T05:04:20.342Z,4.90
2023-01-27T05:07:22.962Z,5.18
2023-01-27T05:10:25.542Z,4.81
2023-01-27T05:13:28.120Z,4.87
2023-01-27T05:16:32.144Z,5.00
2023-01-27T05:19:35.305Z,5.11
2023-01-27T05:22:37.866Z,5.08
2023-01-27T05:25:43.478Z,5.38
2023-01-27T05:28:48.079Z,5.14
2023-01-27T05:31:52.053Z,5.30
2023-01-27T05:34:54.706Z,5.12
2023-01-27T05:37:57.308Z,5.22
2023-01-27T05:41:02.008Z,5.34
2023-01-27T05:44:04.791Z,4.87
2023-01-27T05:47:08.712Z,4.98
2023-01-27T05:50:11.966Z,4.93
2023-01-27T05:53:14.559Z,4.65
2023-01-27T05:56:19.304Z,4.90
2023-01-27T05:59:21.898Z,4.85
2023-01-27T06:02:25.824Z,4.77
2023-01-27T06:05:28.472Z,4.79
2023-01-27T06:08:31.131Z,5.01
2023-01-27T06:11:33.745Z,5.16
2023-01-27T06:14:36.288Z,4.91
2023-01-27T06:17:40.213Z,5.18
2023-01-27T06:20:43.707Z,5.09
2023-01-27T06:23:46.297Z,5.39
2023-01-27T06:26:48.857Z,5.40
2023-01-27T06:29:51.446Z,5.31
2023-01-27T06:32:56.349Z,4.89
2023-01-27T06:36:02.624Z,4.98
2023-01-27T06:39:05.246Z,5.07
2023-01-27T06:42:09.676Z,5.20
2023-01-27T06:45:13.357Z,5.33
2023-01-27T06:48:17.291Z,5.09
2023-01-27T06:51:19.857Z,5.38
2023-01-27T06:54:22.421Z,4.91
2023-01-27T06:57:25.145Z,5.04
2023-01-27T07:00:27.911Z,4.94
2023-01-27T07:03:31.888Z,5.07
2023-01-27T07:06:34.489Z,4.68
2023-01-27T07:09:51.517Z,4.99
2023-01-27T07:13:04.339Z,4.98
2023-01-27T07:16:07.560Z,5.03
2023-01-27T07:19:12.541Z,4.94
2023-01-27T07:22:15.121Z,4.82
2023-01-27T07:25:18.074Z,5.11
2023-01-27T07:28:20.685Z,5.14
2023-01-27T07:31:23.898Z,4.99
2023-01-27T07:34:27.988Z,4.98
2023-01-27T07:37:30.572Z,4.79
2023-01-27T07:40:33.191Z,5.14
2023-01-27T07:43:35.821Z,5.37
2023-01-27T07:46:38.401Z,5.41
2023-01-27T07:49:42.332Z,4.74
2023-01-27T07:52:44.946Z,4.79
2023-01-27T07:55:47.548Z,5.09
2023-01-27T07:58:50.112Z,5.12
2023-01-27T08:01:52.721Z,5.33
2023-01-27T08:04:56.634Z,4.97
2023-01-27T08:07:59.311Z,4.83
2023-01-27T08:11:02.033Z,4.71
2023-01-27T08:14:05.117Z,5.14
2023-01-27T08:17:07.886Z,5.25
2023-01-27T08:20:13.469Z,5.31
2023-01-27T08:23:16.207Z,5.41
2023-01-27T08:26:18.886Z,5.45
2023-01-27T08:29:21.533Z,5.48
2023-01-27T08:32:24.114Z,5.07
2023-01-27T08:35:28.047Z,5.19
2023-01-27T08:38:30.651Z,5.11
2023-01-27T08:41:33.220Z,4.98
2023-01-27T08:44:36.100Z,5.13
2023-01-27T08:47:38.704Z,5.08
2023-01-27T08:50:43.736Z,5.09
2023-01-27T08:53:46.433Z,4.79
2023-01-27T08:56:49.038Z,5.19
2023-01-27T08:59:51.640Z,5.14
2023-01-27T09:02:54.272Z,5.17
2023-01-27T09:05:58.640Z,4.87
2023-01-27T09:09:11.916Z,4.99
2023-01-27T09:12:15.096Z,4.72
2023-01-27T09:15:17.801Z,4.86
2023-01-27T09:18:20.846Z,4.94
2023-01-27T09:21:24.883Z,5.17
2023-01-27T09:24:27.667Z,5.19
2023-01-27T09:27:39.044Z,5.13
2023-01-27T09:30:43.281Z,4.92
2023-01-27T09:33:47.214Z,5.02
2023-01-27T09:36:55.112Z,4.78
2023-01-27T09:40:01.965Z,4.98
2023-01-27T09:43:25.262Z,5.13
2023-01-27T09:46:39.613Z,4.91
2023-01-27T09:50:00.693Z,5.13
2023-01-27T09:53:29.936Z,5.30
2023-01-27T09:56:47.637Z,4.85
2023-01-27T10:00:13.296Z,4.64
2023-01-27T10:03:28.369Z,4.84
2023-01-27T10:06:51.295Z,4.95
2023-01-27T10:10:09.090Z,4.92
2023-01-27T10:13:23.658Z,4.91
2023-01-27T10:16:43.275Z,5.13
2023-01-27T10:20:02.437Z,4.77
2023-01-27T10:23:16.301Z,4.92
2023-01-27T10:26:28.743Z,4.71
2023-01-27T10:29:40.310Z,5.02
2023-01-27T10:32:45.910Z,4.85
2023-01-27T10:35:53.271Z,4.77
2023-01-27T10:39:09.274Z,5.08
2023-01-27T10:42:25.067Z,5.02
2023-01-27T10:45:31.704Z,5.12
2023-01-27T10:48:43.475Z,5.32
2023-01-27T10:51:53.460Z,4.84
2023-01-27T10:55:01.219Z,5.25
2023-01-27T10:58:11.857Z,5.51
2023-01-27T11:01:21.317Z,5.20
2023-01-27T11:04:33.465Z,5.27
2023-01-27T11:07:47.424Z,5.28
2023-01-27T11:11:12.199Z,5.25
2023-01-27T11:14:26.037Z,5.18
2023-01-27T11:17:32.923Z,4.85
2023-01-27T11:20:40.461Z,5.06
2023-01-27T11:23:45.812Z,4.93
2023-01-27T11:26:53.654Z,5.09
2023-01-27T11:30:04.298Z,4.74
2023-01-27T11:33:18.870Z,5.15
2023-01-27T11:36:21.695Z,5.13
2023-01-27T11:39:24.963Z,4.67
2023-01-27T11:42:32.551Z,4.90
2023-01-27T11:45:38.189Z,5.08
2023-01-27T11:48:43.354Z,5.33
2023-01-27T11:51:45.982Z,5.23
2023-01-27T11:54:54.745Z,4.97
2023-01-27T11:58:07.272Z,4.90
2023-01-27T12:01:17.876Z,5.00
2023-01-27T12:04:25.067Z,5.02
2023-01-27T12:07:39.407Z,5.16
2023-01-27T12:10:43.054Z,5.01
2023-01-27T12:13:50.293Z,5.18
2023-01-27T12:16:54.953Z,5.12
2023-01-27T12:19:59.902Z,5.66
2023-01-27T12:23:07.740Z,5.67
2023-01-27T12:26:12.282Z,5.43
2023-01-27T12:29:20.511Z,5.17
2023-01-27T12:32:34.390Z,5.22
2023-01-27T12:35:37.865Z,5.16
2023-01-27T12:38:46.800Z,5.01
2023-01-27T12:41:49.452Z,5.22
2023-01-27T12:44:52.049Z,5.69
2023-01-27T12:48:17.679Z,5.89
2023-01-27T12:51:22.510Z,5.70
2023-01-27T12:54:27.926Z,5.28
2023-01-27T12:57:33.971Z,4.99
2023-01-27T13:00:36.769Z,4.61
2023-01-27T13:03:42.938Z,4.93
2023-01-27T13:06:48.990Z,4.80
2023-01-27T13:09:55.713Z,5.38
2023-01-27T13:13:00.717Z,5.28
2023-01-27T13:16:14.960Z,5.23
2023-01-27T13:19:19.841Z,5.67
2023-01-27T13:22:24.930Z,5.54
2023-01-27T13:25:33.758Z,5.33
2023-01-27T13:28:52.148Z,5.39
2023-01-27T13:32:02.796Z,5.00
2023-01-27T13:35:18.191Z,5.18
2023-01-27T13:38:25.442Z,5.09
2023-01-27T13:41:36.026Z,5.19
2023-01-27T13:44:42.183Z,5.57
2023-01-27T13:47:51.967Z,5.29
2023-01-27T13:51:03.421Z,5.21
2023-01-27T13:54:06.697Z,4.83
2023-01-27T13:57:23.049Z,4.59
2023-01-27T14:00:33.401Z,5.16
2023-01-27T14:03:58.860Z,5.17
2023-01-27T14:07:12.963Z,4.75
2023-01-27T14:10:25.400Z,4.82
2023-01-27T14:13:40.514Z,4.81
2023-01-27T14:16:57.373Z,4.96
2023-01-27T14:20:28.814Z,5.00
2023-01-27T14:23:43.697Z,4.90
2023-01-27T14:26:54.399Z,4.97
2023-01-27T14:30:07.275Z,4.69
2023-01-27T14:33:17.741Z,5.07
2023-01-27T14:36:26.760Z,4.81
2023-01-27T14:39:41.760Z,4.72
2023-01-27T14:42:56.290Z,4.50
2023-01-27T14:46:09.110Z,4.50
2023-01-27T14:49:21.161Z,4.37
2023-01-27T14:52:35.014Z,4.71
2023-01-27T14:55:47.425Z,5.04
2023-01-27T14:59:00.082Z,4.86
2023-01-27T15:02:12.502Z,4.51
2023-01-27T15:05:22.347Z,4.80
2023-01-27T15:08:33.661Z,4.97
2023-01-27T15:11:59.806Z,4.50
2023-01-27T15:15:20.367Z,4.74
2023-01-27T15:18:41.588Z,4.51
2023-01-27T15:22:04.245Z,4.69
2023-01-27T15:25:21.952Z,4.80
2023-01-27T15:28:30.075Z,4.80
2023-01-27T15:31:33.407Z,4.46
2023-01-27T15:34:36.067Z,4.82
2023-01-27T15:37:58.742Z,4.79
2023-01-27T15:41:12.685Z,4.24
2023-01-27T15:44:28.995Z,4.62
2023-01-27T15:47:35.078Z,4.41
2023-01-27T15:50:40.692Z,4.60
2023-01-27T15:53:46.704Z,4.54
2023-01-27T15:56:52.967Z,4.36
2023-01-27T16:00:05.167Z,4.64
2023-01-27T16:03:21.750Z,4.55
2023-01-27T16:06:26.840Z,4.62
2023-01-27T16:09:37.240Z,4.59
2023-01-27T16:12:44.798Z,4.58
2023-01-27T16:15:48.850Z,4.62
2023-01-27T16:19:00.247Z,4.60
2023-01-27T16:22:05.590Z,4.35
2023-01-27T16:25:20.031Z,4.35
2023-01-27T16:28:27.228Z,4.35
2023-01-27T16:31:33.190Z,4.31
2023-01-27T16:34:40.925Z,4.35
2023-01-27T16:38:00.371Z,4.51
2023-01-27T16:41:09.221Z,4.55
2023-01-27T16:44:20.878Z,4.55
2023-01-27T16:47:29.589Z,4.53
2023-01-27T16:50:34.742Z,4.49
2023-01-27T16:53:37.813Z,4.60
2023-01-27T16:56:41.298Z,4.59
2023-01-27T16:59:43.910Z,4.71
2023-01-27T17:02:48.872Z,4.64
2023-01-27T17:05:53.384Z,4.58
2023-01-27T17:08:56.220Z,4.47
2023-01-27T17:11:59.303Z,4.23
2023-01-27T17:15:10.295Z,4.14
2023-01-27T17:18:16.067Z,4.44
2023-01-27T17:21:29.316Z,4.36
2023-01-27T17:24:34.424Z,4.46
2023-01-27T17:27:40.521Z,4.58
2023-01-27T17:30:46.695Z,4.61
2023-01-27T17:33:59.148Z,4.27
2023-01-27T17:37:23.286Z,4.55
2023-01-27T17:40:25.875Z,4.58
2023-01-27T17:43:31.879Z,4.72
2023-01-27T17:46:35.166Z,4.71
2023-01-27T17:49:40.647Z,4.69
2023-01-27T17:52:52.155Z,4.60
2023-01-27T17:55:56.738Z,4.41
2023-01-27T17:59:06.042Z,4.48
2023-01-27T18:02:17.427Z,4.58
2023-01-27T18:05:23.225Z,4.57
2023-01-27T18:08:25.966Z,4.55
2023-01-27T18:11:32.042Z,4.01
2023-01-27T18:14:36.076Z,4.28
2023-01-27T18:17:38.767Z,4.60
2023-01-27T18:20:42.713Z,4.66
2023-01-27T18:23:47.646Z,4.53
2023-01-27T18:26:51.197Z,4.58
2023-01-27T18:29:56.852Z,4.66
2023-01-27T18:33:03.159Z,4.28
2023-01-27T18:36:20.567Z,3.84
2023-01-27T18:39:30.476Z,4.16
2023-01-27T18:42:33.059Z,4.22
2023-01-27T18:45:35.628Z,4.50
2023-01-27T18:48:40.051Z,4.44
2023-01-27T18:51:44.079Z,4.62
2023-01-27T18:54:46.662Z,4.68
2023-01-27T18:57:50.534Z,4.65
2023-01-27T19:00:55.649Z,4.69
2023-01-27T19:03:58.261Z,4.66
2023-01-27T19:07:05.050Z,4.67
2023-01-27T19:10:14.594Z,4.37
2023-01-27T19:13:17.932Z,4.57
2023-01-27T19:16:20.677Z,4.61
2023-01-27T19:19:24.355Z,4.63
2023-01-27T19:22:28.292Z,4.62
2023-01-27T19:25:31.342Z,4.61
2023-01-27T19:28:36.630Z,4.26
2023-01-27T19:31:39.324Z,4.41
2023-01-27T19:34:42.265Z,4.53
2023-01-27T19:37:46.398Z,4.70
2023-01-27T19:40:49.120Z,4.63
2023-01-27T19:43:51.710Z,4.63
2023-01-27T19:46:55.555Z,4.59
2023-01-27T19:49:58.129Z,4.53
2023-01-27T19:53:02.107Z,4.62
2023-01-27T19:56:05.185Z,4.35
2023-01-27T19:59:08.118Z,4.40
2023-01-27T20:02:13.250Z,4.47
2023-01-27T20:05:16.405Z,4.53
2023-01-27T20:08:22.808Z,4.29
2023-01-27T20:11:35.055Z,4.31
2023-01-27T20:14:37.667Z,4.23
2023-01-27T20:17:40.283Z,4.41
2023-01-27T20:20:44.139Z,4.32
2023-01-27T20:23:48.395Z,4.29
2023-01-27T20:26:50.962Z,4.48
2023-01-27T20:29:53.573Z,4.49
2023-01-27T20:32:56.687Z,4.45
2023-01-27T20:35:59.281Z,4.49
2023-01-27T20:39:03.398Z,4.37
2023-01-27T20:42:06.336Z,4.28
2023-01-27T20:45:09.544Z,4.21
2023-01-27T20:48:12.274Z,4.17
2023-01-27T20:51:16.157Z,4.33
2023-01-27T20:54:20.195Z,4.18
2023-01-27T20:57:23.913Z,4.04
2023-01-27T21:00:26.993Z,3.93
2023-01-27T21:03:29.639Z,3.88
2023-01-27T21:06:32.223Z,3.88
2023-01-27T21:09:36.170Z,3.73
2023-01-27T21:12:38.774Z,3.73
2023-01-27T21:15:47.395Z,3.81
2023-01-27T21:18:50.236Z,3.68
2023-01-27T21:21:52.846Z,3.67
2023-01-27T21:24:56.767Z,3.54
2023-01-27T21:27:59.371Z,3.62
2023-01-27T21:31:06.500Z,3.61
2023-01-27T21:34:11.224Z,3.55
2023-01-27T21:37:13.868Z,3.58
2023-01-27T21:40:18.333Z,3.54
2023-01-27T21:43:38.314Z,3.48
2023-01-27T21:46:40.883Z,3.36
2023-01-27T21:50:04.234Z,3.36
2023-01-27T21:53:09.828Z,3.42
2023-01-27T21:56:13.779Z,3.31
2023-01-27T21:59:16.526Z,3.33
2023-01-27T22:02:19.121Z,3.26
2023-01-27T22:05:22.074Z,3.36
2023-01-27T22:08:24.672Z,3.36
2023-01-27T22:11:28.648Z,3.35
2023-01-27T22:14:31.292Z,3.34
2023-01-27T22:17:34.362Z,3.37
2023-01-27T22:20:37.576Z,3.40
2023-01-27T22:23:40.157Z,3.35
2023-01-27T22:26:44.142Z,3.41
2023-01-27T22:29:46.773Z,3.39
2023-01-27T22:32:49.655Z,3.37
2023-01-27T22:35:59.738Z,3.34
2023-01-27T22:39:02.418Z,3.39
2023-01-27T22:42:06.627Z,3.46
2023-01-27T22:45:11.073Z,3.47
2023-01-27T22:48:14.274Z,3.40
2023-01-27T22:51:17.635Z,3.38
2023-01-27T22:54:20.333Z,3.45
2023-01-27T22:57:30.012Z,3.46
2023-01-27T23:00:32.740Z,3.54
2023-01-27T23:03:35.409Z,3.47
2023-01-27T23:06:38.047Z,3.49
2023-01-27T23:09:40.649Z,3.55
2023-01-27T23:12:44.651Z,3.51
2023-01-27T23:15:47.309Z,3.47
2023-01-27T23:18:50.184Z,3.50
2023-01-27T23:21:52.844Z,3.52
2023-01-27T23:24:55.485Z,3.47
2023-01-27T23:27:59.706Z,3.47
2023-01-27T23:31:02.427Z,3.52
2023-01-27T23:34:05.100Z,3.54
2023-01-27T23:37:07.682Z,3.51
2023-01-27T23:40:11.770Z,3.04
2023-01-27T23:43:15.698Z,3.31
2023-01-27T23:46:18.349Z,3.45
2023-01-27T23:49:21.107Z,3.53
2023-01-27T23:52:23.687Z,3.51
2023-01-27T23:55:26.396Z,3.37
2023-01-27T23:58:30.372Z,3.48
